createdAt,value
2018-01-15T00:00:20.833Z,1011.28
2018-01-15T00:01:20.841Z,1011.26
2018-01-15T00:02:20.852Z,1011.24
2018-01-15T00:03:20.862Z,1011.24
2018-01-15T00:04:20.876Z,1011.26
2018-01-15T00:05:20.894Z,1011.23
2018-01-15T00:06:20.945Z,1011.23
2018-01-15T00:07:20.924Z,1011.21
2018-01-15T00:08:20.913Z,1011.19
2018-01-15T00:09:20.927Z,1011.15
2018-01-15T00:10:20.934Z,1011.15
2018-01-15T00:11:20.956Z,1011.16
2018-01-15T00:12:20.955Z,1011.16
2018-01-15T00:13:20.975Z,1011.17
2018-01-15T00:14:20.975Z,1011.21
2018-01-15T00:15:20.997Z,1011.14
2018-01-15T00:16:20.998Z,1011.11
2018-01-15T00:17:21.017Z,1011.15
2018-01-15T00:18:21.016Z,1011.13
2018-01-15T00:19:21.037Z,1011.11
2018-01-15T00:20:21.093Z,1011.13
2018-01-15T00:21:21.057Z,1011.06
2018-01-15T00:22:21.070Z,1011.08
2018-01-15T00:23:21.192Z,1011.08
2018-01-15T00:24:21.084Z,1011.02
2018-01-15T00:25:21.088Z,1011.04
2018-01-15T00:26:21.109Z,1011.02
2018-01-15T00:27:21.143Z,1010.98
2018-01-15T00:28:21.131Z,1010.97
2018-01-15T00:29:21.140Z,1010.97
2018-01-15T00:30:21.152Z,1010.97
2018-01-15T00:31:21.161Z,1010.94
2018-01-15T00:32:21.159Z,1010.98
2018-01-15T00:33:21.170Z,1010.92
2018-01-15T00:34:21.191Z,1010.92
2018-01-15T00:35:21.192Z,1010.94
2018-01-15T00:36:21.201Z,1010.94
2018-01-15T00:37:21.223Z,1010.92
2018-01-15T00:38:21.233Z,1010.89
2018-01-15T00:39:21.240Z,1010.87
2018-01-15T00:40:21.245Z,1010.88
2018-01-15T00:41:21.265Z,1010.84
2018-01-15T00:42:21.266Z,1010.85
2018-01-15T00:43:21.274Z,1010.84
2018-01-15T00:44:21.296Z,1010.8
2018-01-15T00:45:21.297Z,1010.87
2018-01-15T00:46:21.316Z,1010.84
2018-01-15T00:47:21.315Z,1010.85
2018-01-15T00:48:21.338Z,1010.85
2018-01-15T00:49:21.347Z,1010.86
2018-01-15T00:50:21.357Z,1010.8
2018-01-15T00:51:21.359Z,1010.85
2018-01-15T00:52:21.369Z,1010.78
2018-01-15T00:53:21.388Z,1010.79
2018-01-15T00:54:21.398Z,1010.79
2018-01-15T00:55:21.409Z,1010.78
2018-01-15T00:56:21.411Z,1010.8
2018-01-15T00:57:21.420Z,1010.77
2018-01-15T00:58:21.440Z,1010.77
2018-01-15T00:59:21.439Z,1010.73
2018-01-15T01:00:21.460Z,1010.74
2018-01-15T01:01:21.460Z,1010.72
2018-01-15T01:02:21.470Z,1010.67
2018-01-15T01:03:21.481Z,1010.69
2018-01-15T01:04:21.491Z,1010.71
2018-01-15T01:05:21.511Z,1010.68
2018-01-15T01:06:21.512Z,1010.71
2018-01-15T01:07:21.524Z,1010.75
2018-01-15T01:08:21.544Z,1010.72
2018-01-15T01:09:21.552Z,1010.68
2018-01-15T01:10:21.563Z,1010.68
2018-01-15T01:11:21.563Z,1010.64
2018-01-15T01:12:21.573Z,1010.71
2018-01-15T01:13:21.584Z,1010.67
2018-01-15T01:14:21.594Z,1010.69
2018-01-15T01:15:21.604Z,1010.7
2018-01-15T01:16:21.613Z,1010.72
2018-01-15T01:17:21.624Z,1010.7
2018-01-15T01:18:21.636Z,1010.71
2018-01-15T01:19:21.647Z,1010.69
2018-01-15T01:20:21.656Z,1010.69
2018-01-15T01:21:21.676Z,1010.67
2018-01-15T01:22:21.676Z,1010.65
2018-01-15T01:23:21.700Z,1010.66
2018-01-15T01:24:21.696Z,1010.66
2018-01-15T01:25:21.714Z,1010.65
2018-01-15T01:26:21.729Z,1010.59
2018-01-15T01:27:21.740Z,1010.58
2018-01-15T01:28:21.748Z,1010.51
2018-01-15T01:29:21.763Z,1010.5
2018-01-15T01:30:21.771Z,1010.47
2018-01-15T01:31:21.779Z,1010.53
2018-01-15T01:32:21.779Z,1010.51
2018-01-15T01:33:21.792Z,1010.48
2018-01-15T01:34:21.800Z,1010.49
2018-01-15T01:35:21.821Z,1010.48
2018-01-15T01:36:21.831Z,1010.46
2018-01-15T01:37:21.832Z,1010.5
2018-01-15T01:38:21.851Z,1010.45
2018-01-15T01:39:21.851Z,1010.45
2018-01-15T01:40:21.872Z,1010.44
2018-01-15T01:41:21.872Z,1010.4
2018-01-15T01:42:21.895Z,1010.45
2018-01-15T01:43:21.893Z,1010.41
2018-01-15T01:44:21.914Z,1010.42
2018-01-15T01:45:21.918Z,1010.38
2018-01-15T01:46:21.933Z,1010.38
2018-01-15T01:47:21.935Z,1010.39
2018-01-15T01:48:21.948Z,1010.4
2018-01-15T01:49:21.957Z,1010.36
2018-01-15T01:50:21.976Z,1010.35
2018-01-15T01:51:21.976Z,1010.37
2018-01-15T01:52:21.986Z,1010.4
2018-01-15T01:53:22.007Z,1010.36
2018-01-15T01:54:22.010Z,1010.36
2018-01-15T01:55:22.022Z,1010.37
2018-01-15T01:56:22.037Z,1010.35
2018-01-15T01:57:22.039Z,1010.32
2018-01-15T01:58:22.062Z,1010.32
2018-01-15T01:59:22.069Z,1010.3
2018-01-15T02:00:22.084Z,1010.29
2018-01-15T02:01:22.079Z,1010.24
2018-01-15T02:02:22.089Z,1010.25
2018-01-15T02:03:22.099Z,1010.19
2018-01-15T02:04:22.109Z,1010.18
2018-01-15T02:05:22.119Z,1010.2
2018-01-15T02:06:22.140Z,1010.19
2018-01-15T02:07:22.150Z,1010.18
2018-01-15T02:08:22.160Z,1010.18
2018-01-15T02:09:22.160Z,1010.21
2018-01-15T02:10:22.171Z,1010.16
2018-01-15T02:11:22.180Z,1010.09
2018-01-15T02:12:22.202Z,1010.08
2018-01-15T02:13:22.205Z,1010.02
2018-01-15T02:14:22.214Z,1010
2018-01-15T02:15:22.233Z,1009.95
2018-01-15T02:16:22.233Z,1009.94
2018-01-15T02:17:22.353Z,1009.94
2018-01-15T02:18:22.253Z,1009.94
2018-01-15T02:19:22.264Z,1009.94
2018-01-15T02:20:22.277Z,1009.93
2018-01-15T02:21:22.285Z,1009.93
2018-01-15T02:22:22.309Z,1009.96
2018-01-15T02:23:22.316Z,1009.91
2018-01-15T02:24:22.327Z,1009.93
2018-01-15T02:25:22.331Z,1009.91
2018-01-15T02:26:22.337Z,1009.92
2018-01-15T02:27:22.358Z,1009.91
2018-01-15T02:28:22.368Z,1009.88
2018-01-15T02:29:22.378Z,1009.9
2018-01-15T02:30:22.384Z,1009.87
2018-01-15T02:31:22.400Z,1009.86
2018-01-15T02:32:22.402Z,1009.87
2018-01-15T02:33:22.409Z,1009.8
2018-01-15T02:34:22.420Z,1009.83
2018-01-15T02:35:22.443Z,1009.79
2018-01-15T02:36:22.450Z,1009.75
2018-01-15T02:37:22.460Z,1009.79
2018-01-15T02:38:22.461Z,1009.8
2018-01-15T02:39:22.482Z,1009.79
2018-01-15T02:40:22.481Z,1009.78
2018-01-15T02:41:22.502Z,1009.75
2018-01-15T02:42:22.512Z,1009.79
2018-01-15T02:43:22.514Z,1009.78
2018-01-15T02:44:22.532Z,1009.79
2018-01-15T02:45:22.544Z,1009.73
2018-01-15T02:46:22.564Z,1009.75
2018-01-15T02:47:22.553Z,1009.71
2018-01-15T02:48:22.575Z,1009.7
2018-01-15T02:49:22.574Z,1009.7
2018-01-15T02:50:22.585Z,1009.7
2018-01-15T02:51:22.607Z,1009.69
2018-01-15T02:52:22.615Z,1009.69
2018-01-15T02:53:22.619Z,1009.69
2018-01-15T02:54:22.641Z,1009.66
2018-01-15T02:55:22.641Z,1009.63
2018-01-15T02:56:22.646Z,1009.65
2018-01-15T02:57:22.668Z,1009.61
2018-01-15T02:58:22.666Z,1009.6
2018-01-15T02:59:22.677Z,1009.58
2018-01-15T03:00:22.689Z,1009.61
2018-01-15T03:01:22.698Z,1009.61
2018-01-15T03:02:22.708Z,1009.59
2018-01-15T03:03:22.720Z,1009.6
2018-01-15T03:04:22.740Z,1009.59
2018-01-15T03:05:22.740Z,1009.58
2018-01-15T03:06:22.762Z,1009.55
2018-01-15T03:07:22.770Z,1009.53
2018-01-15T03:08:22.770Z,1009.5
2018-01-15T03:09:22.790Z,1009.45
2018-01-15T03:10:22.790Z,1009.43
2018-01-15T03:11:22.811Z,1009.41
2018-01-15T03:12:22.821Z,1009.44
2018-01-15T03:13:22.832Z,1009.41
2018-01-15T03:14:22.832Z,1009.39
2018-01-15T03:15:22.842Z,1009.38
2018-01-15T03:16:22.855Z,1009.35
2018-01-15T03:17:22.873Z,1009.36
2018-01-15T03:18:22.886Z,1009.32
2018-01-15T03:19:22.882Z,1009.25
2018-01-15T03:20:22.896Z,1009.23
2018-01-15T03:21:22.903Z,1009.24
2018-01-15T03:22:22.913Z,1009.19
2018-01-15T03:23:22.923Z,1009.19
2018-01-15T03:24:22.943Z,1009.15
2018-01-15T03:25:22.943Z,1009.15
2018-01-15T03:26:22.954Z,1009.14
2018-01-15T03:27:22.980Z,1009.15
2018-01-15T03:28:22.984Z,1009.14
2018-01-15T03:29:22.994Z,1009.13
2018-01-15T03:30:22.996Z,1009.09
2018-01-15T03:31:23.015Z,1009.06
2018-01-15T03:32:23.025Z,1009.08
2018-01-15T03:33:23.025Z,1009.07
2018-01-15T03:34:23.045Z,1009.1
2018-01-15T03:35:23.055Z,1009.08
2018-01-15T03:36:23.067Z,1009.05
2018-01-15T03:37:23.077Z,1009.05
2018-01-15T03:38:23.086Z,1009.02
2018-01-15T03:39:23.085Z,1009.03
2018-01-15T03:40:23.097Z,1009
2018-01-15T03:41:23.116Z,1008.95
2018-01-15T03:42:23.115Z,1008.94
2018-01-15T03:43:23.137Z,1008.95
2018-01-15T03:44:23.148Z,1008.92
2018-01-15T03:45:23.146Z,1008.92
2018-01-15T03:46:23.168Z,1008.91
2018-01-15T03:47:23.176Z,1008.95
2018-01-15T03:48:23.176Z,1008.94
2018-01-15T03:49:23.192Z,1008.9
2018-01-15T03:50:23.209Z,1008.94
2018-01-15T03:51:23.219Z,1008.98
2018-01-15T03:52:23.232Z,1008.94
2018-01-15T03:53:23.229Z,1008.97
2018-01-15T03:54:23.372Z,1008.95
2018-01-15T03:55:23.260Z,1008.92
2018-01-15T03:56:23.269Z,1008.91
2018-01-15T03:57:23.279Z,1008.91
2018-01-15T03:58:23.278Z,1008.84
2018-01-15T03:59:23.299Z,1008.84
2018-01-15T04:00:23.309Z,1008.85
2018-01-15T04:01:23.309Z,1008.84
2018-01-15T04:02:23.334Z,1008.84
2018-01-15T04:03:23.342Z,1008.81
2018-01-15T04:04:23.349Z,1008.8
2018-01-15T04:05:23.351Z,1008.75
2018-01-15T04:06:23.361Z,1008.78
2018-01-15T04:07:23.371Z,1008.75
2018-01-15T04:08:23.380Z,1008.76
2018-01-15T04:09:23.389Z,1008.7
2018-01-15T04:10:23.399Z,1008.72
2018-01-15T04:11:23.441Z,1008.73
2018-01-15T04:12:23.429Z,1008.74
2018-01-15T04:13:23.439Z,1008.7
2018-01-15T04:14:23.439Z,1008.62
2018-01-15T04:15:23.448Z,1008.67
2018-01-15T04:16:23.460Z,1008.62
2018-01-15T04:17:23.469Z,1008.56
2018-01-15T04:18:23.479Z,1008.55
2018-01-15T04:19:23.488Z,1008.55
2018-01-15T04:20:23.509Z,1008.49
2018-01-15T04:21:23.519Z,1008.44
2018-01-15T04:22:23.530Z,1008.46
2018-01-15T04:23:23.538Z,1008.42
2018-01-15T04:24:23.549Z,1008.38
2018-01-15T04:25:23.549Z,1008.36
2018-01-15T04:26:23.558Z,1008.38
2018-01-15T04:27:23.572Z,1008.35
2018-01-15T04:28:23.579Z,1008.35
2018-01-15T04:29:23.599Z,1008.39
2018-01-15T04:30:23.609Z,1008.33
2018-01-15T04:31:23.627Z,1008.36
2018-01-15T04:32:23.619Z,1008.35
2018-01-15T04:33:23.627Z,1008.35
2018-01-15T04:34:23.648Z,1008.38
2018-01-15T04:35:23.658Z,1008.29
2018-01-15T04:36:23.670Z,1008.31
2018-01-15T04:37:23.668Z,1008.33
2018-01-15T04:38:23.679Z,1008.32
2018-01-15T04:39:23.688Z,1008.26
2018-01-15T04:40:23.709Z,1008.3
2018-01-15T04:41:23.706Z,1008.25
2018-01-15T04:42:23.720Z,1008.23
2018-01-15T04:43:23.727Z,1008.25
2018-01-15T04:44:23.737Z,1008.21
2018-01-15T04:45:23.759Z,1008.18
2018-01-15T04:46:23.768Z,1008.19
2018-01-15T04:47:23.778Z,1008.18
2018-01-15T04:48:23.787Z,1008.2
2018-01-15T04:49:23.797Z,1008.19
2018-01-15T04:50:23.809Z,1008.19
2018-01-15T04:51:23.818Z,1008.16
2018-01-15T04:52:23.816Z,1008.16
2018-01-15T04:53:23.846Z,1008.14
2018-01-15T04:54:23.856Z,1008.13
2018-01-15T04:55:23.858Z,1008.11
2018-01-15T04:56:23.866Z,1008.11
2018-01-15T04:57:23.877Z,1008.11
2018-01-15T04:58:23.888Z,1008.06
2018-01-15T04:59:23.898Z,1008.06
2018-01-15T05:00:23.911Z,1008.03
2018-01-15T05:01:23.905Z,1008.03
2018-01-15T05:02:23.917Z,1008.01
2018-01-15T05:03:23.937Z,1007.96
2018-01-15T05:04:23.935Z,1008
2018-01-15T05:05:23.956Z,1008.03
2018-01-15T05:06:23.965Z,1007.99
2018-01-15T05:07:23.975Z,1007.95
2018-01-15T05:08:23.977Z,1007.95
2018-01-15T05:09:23.986Z,1007.96
2018-01-15T05:10:24.007Z,1007.94
2018-01-15T05:11:24.004Z,1007.93
2018-01-15T05:12:24.025Z,1007.98
2018-01-15T05:13:24.025Z,1007.97
2018-01-15T05:14:24.034Z,1007.93
2018-01-15T05:15:24.044Z,1007.97
2018-01-15T05:16:24.054Z,1007.97
2018-01-15T05:17:24.063Z,1007.97
2018-01-15T05:18:24.073Z,1007.99
2018-01-15T05:19:24.085Z,1008
2018-01-15T05:20:24.093Z,1008
2018-01-15T05:21:24.113Z,1008.04
2018-01-15T05:22:24.117Z,1008.04
2018-01-15T05:23:24.133Z,1008
2018-01-15T05:24:24.136Z,1008.06
2018-01-15T05:25:24.143Z,1008.06
2018-01-15T05:26:24.164Z,1008.05
2018-01-15T05:27:24.203Z,1008.02
2018-01-15T05:28:24.182Z,1008
2018-01-15T05:29:24.192Z,1008.02
2018-01-15T05:30:24.203Z,1008.02
2018-01-15T05:31:24.213Z,1007.94
2018-01-15T05:32:24.212Z,1007.9
2018-01-15T05:33:24.222Z,1007.88
2018-01-15T05:34:24.242Z,1007.91
2018-01-15T05:35:24.241Z,1007.93
2018-01-15T05:36:24.261Z,1007.87
2018-01-15T05:37:24.271Z,1007.87
2018-01-15T05:38:24.283Z,1007.91
2018-01-15T05:39:24.281Z,1007.91
2018-01-15T05:40:24.290Z,1007.87
2018-01-15T05:41:24.300Z,1007.86
2018-01-15T05:42:24.323Z,1007.87
2018-01-15T05:43:24.330Z,1007.82
2018-01-15T05:44:24.331Z,1007.86
2018-01-15T05:45:24.340Z,1007.86
2018-01-15T05:46:24.349Z,1007.85
2018-01-15T05:47:24.361Z,1007.82
2018-01-15T05:48:24.379Z,1007.77
2018-01-15T05:49:24.393Z,1007.76
2018-01-15T05:50:24.399Z,1007.7
2018-01-15T05:51:24.408Z,1007.67
2018-01-15T05:52:24.419Z,1007.65
2018-01-15T05:53:24.429Z,1007.62
2018-01-15T05:54:24.478Z,1007.63
2018-01-15T05:55:24.448Z,1007.64
2018-01-15T05:56:24.459Z,1007.61
2018-01-15T05:57:24.456Z,1007.57
2018-01-15T05:58:24.477Z,1007.55
2018-01-15T05:59:24.490Z,1007.57
2018-01-15T06:00:24.497Z,1007.59
2018-01-15T06:01:24.506Z,1007.6
2018-01-15T06:02:24.516Z,1007.57
2018-01-15T06:03:24.527Z,1007.56
2018-01-15T06:04:24.528Z,1007.56
2018-01-15T06:05:24.535Z,1007.55
2018-01-15T06:06:24.544Z,1007.55
2018-01-15T06:07:24.567Z,1007.52
2018-01-15T06:08:24.564Z,1007.49
2018-01-15T06:09:24.573Z,1007.49
2018-01-15T06:10:24.585Z,1007.5
2018-01-15T06:11:24.595Z,1007.51
2018-01-15T06:12:24.623Z,1007.51
2018-01-15T06:13:24.629Z,1007.53
2018-01-15T06:14:24.636Z,1007.5
2018-01-15T06:15:24.633Z,1007.54
2018-01-15T06:16:24.645Z,1007.57
2018-01-15T06:17:24.654Z,1007.58
2018-01-15T06:18:24.754Z,1007.53
2018-01-15T06:19:24.672Z,1007.5
2018-01-15T06:20:24.692Z,1007.5
2018-01-15T06:21:24.703Z,1007.49
2018-01-15T06:22:24.702Z,1007.45
2018-01-15T06:23:24.720Z,1007.41
2018-01-15T06:24:24.731Z,1007.4
2018-01-15T06:25:24.731Z,1007.34
2018-01-15T06:26:24.751Z,1007.39
2018-01-15T06:27:24.750Z,1007.42
2018-01-15T06:28:24.759Z,1007.43
2018-01-15T06:29:24.788Z,1007.43
2018-01-15T06:30:24.825Z,1007.43
2018-01-15T06:31:24.800Z,1007.4
2018-01-15T06:32:24.809Z,1007.41
2018-01-15T06:33:24.820Z,1007.39
2018-01-15T06:34:24.820Z,1007.4
2018-01-15T06:35:24.842Z,1007.37
2018-01-15T06:36:24.849Z,1007.4
2018-01-15T06:37:24.859Z,1007.38
2018-01-15T06:38:24.869Z,1007.39
2018-01-15T06:39:24.868Z,1007.32
2018-01-15T06:40:25.039Z,1007.31
2018-01-15T06:41:24.897Z,1007.31
2018-01-15T06:42:24.908Z,1007.31
2018-01-15T06:43:24.907Z,1007.36
2018-01-15T06:44:24.928Z,1007.31
2018-01-15T06:45:25.085Z,1007.31
2018-01-15T06:46:24.936Z,1007.3
2018-01-15T06:47:24.956Z,1007.29
2018-01-15T06:48:24.966Z,1007.28
2018-01-15T06:49:24.964Z,1007.25
2018-01-15T06:50:25.010Z,1007.18
2018-01-15T06:51:24.994Z,1007.24
2018-01-15T06:52:25.037Z,1007.23
2018-01-15T06:53:25.006Z,1007.18
2018-01-15T06:54:25.013Z,1007.18
2018-01-15T06:55:25.036Z,1007.2
2018-01-15T06:56:25.033Z,1007.18
2018-01-15T06:57:25.053Z,1007.18
2018-01-15T06:58:25.076Z,1007.18
2018-01-15T06:59:25.086Z,1007.16
2018-01-15T07:00:25.084Z,1007.2
2018-01-15T07:01:25.081Z,1007.14
2018-01-15T07:02:25.091Z,1007.12
2018-01-15T07:03:25.100Z,1007.12
2018-01-15T07:04:25.111Z,1007.16
2018-01-15T07:05:25.181Z,1007.18
2018-01-15T07:06:25.131Z,1007.15
2018-01-15T07:07:25.150Z,1007.13
2018-01-15T07:08:25.160Z,1007.1
2018-01-15T07:09:25.159Z,1007.11
2018-01-15T07:10:25.231Z,1007.13
2018-01-15T07:11:25.179Z,1007.09
2018-01-15T07:12:25.192Z,1007.13
2018-01-15T07:13:25.209Z,1007.11
2018-01-15T07:14:25.218Z,1007.12
2018-01-15T07:15:25.378Z,1007.09
2018-01-15T07:16:25.227Z,1007.1
2018-01-15T07:17:25.247Z,1007.11
2018-01-15T07:18:25.256Z,1007.08
2018-01-15T07:19:25.257Z,1007.08
2018-01-15T07:20:25.277Z,1007.11
2018-01-15T07:21:25.275Z,1007.07
2018-01-15T07:22:25.341Z,1007.07
2018-01-15T07:23:25.315Z,1007.07
2018-01-15T07:24:25.315Z,1007.1
2018-01-15T07:25:25.328Z,1007.05
2018-01-15T07:26:25.323Z,1007.05
2018-01-15T07:27:25.333Z,1007.07
2018-01-15T07:28:25.357Z,1006.99
2018-01-15T07:29:25.362Z,1007.02
2018-01-15T07:30:25.361Z,1007.01
2018-01-15T07:31:25.374Z,1007.02
2018-01-15T07:32:25.380Z,1006.95
2018-01-15T07:33:25.392Z,1007
2018-01-15T07:34:25.401Z,1006.97
2018-01-15T07:35:25.422Z,1006.94
2018-01-15T07:36:25.640Z,1006.96
2018-01-15T07:37:25.441Z,1006.95
2018-01-15T07:38:25.439Z,1006.94
2018-01-15T07:39:25.460Z,1006.87
2018-01-15T07:40:25.468Z,1006.91
2018-01-15T07:41:25.480Z,1006.92
2018-01-15T07:42:25.477Z,1006.91
2018-01-15T07:43:25.487Z,1006.89
2018-01-15T07:44:25.499Z,1006.91
2018-01-15T07:45:25.522Z,1006.89
2018-01-15T07:46:25.516Z,1006.91
2018-01-15T07:47:25.535Z,1006.88
2018-01-15T07:48:25.534Z,1006.89
2018-01-15T07:49:25.544Z,1006.86
2018-01-15T07:50:25.567Z,1006.85
2018-01-15T07:51:25.563Z,1006.81
2018-01-15T07:52:25.573Z,1006.81
2018-01-15T07:53:25.596Z,1006.81
2018-01-15T07:54:25.606Z,1006.78
2018-01-15T07:55:25.613Z,1006.77
2018-01-15T07:56:25.622Z,1006.77
2018-01-15T07:57:25.621Z,1006.78
2018-01-15T07:58:25.640Z,1006.81
2018-01-15T07:59:25.663Z,1006.74
2018-01-15T08:00:25.661Z,1006.7
2018-01-15T08:01:25.659Z,1006.77
2018-01-15T08:02:25.669Z,1006.74
2018-01-15T08:03:25.717Z,1006.7
2018-01-15T08:04:25.688Z,1006.73
2018-01-15T08:05:25.712Z,1006.66
2018-01-15T08:06:25.707Z,1006.65
2018-01-15T08:07:25.733Z,1006.65
2018-01-15T08:08:25.739Z,1006.64
2018-01-15T08:09:25.781Z,1006.62
2018-01-15T08:10:25.746Z,1006.62
2018-01-15T08:11:25.769Z,1006.66
2018-01-15T08:12:25.778Z,1006.62
2018-01-15T08:13:25.787Z,1006.69
2018-01-15T08:14:25.793Z,1006.63
2018-01-15T08:15:25.802Z,1006.61
2018-01-15T08:16:25.813Z,1006.6
2018-01-15T08:17:25.824Z,1006.58
2018-01-15T08:18:25.834Z,1006.56
2018-01-15T08:19:25.842Z,1006.55
2018-01-15T08:20:25.852Z,1006.58
2018-01-15T08:21:25.901Z,1006.53
2018-01-15T08:22:25.870Z,1006.5
2018-01-15T08:23:25.870Z,1006.45
2018-01-15T08:24:25.890Z,1006.43
2018-01-15T08:25:25.899Z,1006.45
2018-01-15T08:26:25.898Z,1006.45
2018-01-15T08:27:25.926Z,1006.41
2018-01-15T08:28:25.917Z,1006.44
2018-01-15T08:29:25.937Z,1006.41
2018-01-15T08:30:25.937Z,1006.44
2018-01-15T08:31:25.996Z,1006.4
2018-01-15T08:32:25.956Z,1006.42
2018-01-15T08:33:25.966Z,1006.4
2018-01-15T08:34:25.975Z,1006.33
2018-01-15T08:35:25.985Z,1006.29
2018-01-15T08:36:27.507Z,1006.32
2018-01-15T08:37:26.015Z,1006.3
2018-01-15T08:38:26.032Z,1006.23
2018-01-15T08:39:26.025Z,1006.23
2018-01-15T08:40:26.034Z,1006.22
2018-01-15T08:41:26.043Z,1006.25
2018-01-15T08:42:26.053Z,1006.25
2018-01-15T08:43:26.072Z,1006.27
2018-01-15T08:44:26.072Z,1006.27
2018-01-15T08:45:26.082Z,1006.21
2018-01-15T08:46:26.092Z,1006.28
2018-01-15T08:47:26.101Z,1006.17
2018-01-15T08:48:26.111Z,1006.16
2018-01-15T08:49:26.120Z,1006.21
2018-01-15T08:50:26.130Z,1006.15
2018-01-15T08:51:26.150Z,1006.18
2018-01-15T08:52:26.151Z,1006.16
2018-01-15T08:53:26.158Z,1006.13
2018-01-15T08:54:26.171Z,1006.08
2018-01-15T08:55:26.188Z,1006.13
2018-01-15T08:56:26.199Z,1006.04
2018-01-15T08:57:26.197Z,1006.08
2018-01-15T08:58:26.207Z,1006.07
2018-01-15T08:59:26.218Z,1006.05
2018-01-15T09:00:26.235Z,1006.03
2018-01-15T09:01:26.247Z,1006.01
2018-01-15T09:02:26.261Z,1006.02
2018-01-15T09:03:26.265Z,1006.07
2018-01-15T09:04:26.264Z,1006.07
2018-01-15T09:05:26.274Z,1006.04
2018-01-15T09:06:26.292Z,1006.1
2018-01-15T09:07:26.302Z,1006.09
2018-01-15T09:08:26.301Z,1006.08
2018-01-15T09:09:26.322Z,1006.06
2018-01-15T09:10:26.322Z,1006.1
2018-01-15T09:11:26.341Z,1006.05
2018-01-15T09:12:26.341Z,1006.06
2018-01-15T09:13:26.363Z,1006.02
2018-01-15T09:14:26.361Z,1006.01
2018-01-15T09:15:26.369Z,1006
2018-01-15T09:16:26.391Z,1005.98
2018-01-15T09:17:26.389Z,1005.97
2018-01-15T09:18:26.398Z,1006.02
2018-01-15T09:19:26.408Z,1005.95
2018-01-15T09:20:26.429Z,1005.91
2018-01-15T09:21:26.438Z,1006
2018-01-15T09:22:26.437Z,1005.95
2018-01-15T09:23:26.447Z,1005.96
2018-01-15T09:24:26.456Z,1005.91
2018-01-15T09:25:26.477Z,1005.9
2018-01-15T09:26:26.476Z,1005.88
2018-01-15T09:27:26.487Z,1005.81
2018-01-15T09:28:26.506Z,1005.86
2018-01-15T09:29:26.505Z,1005.83
2018-01-15T09:30:26.515Z,1005.83
2018-01-15T09:31:26.537Z,1005.81
2018-01-15T09:32:26.536Z,1005.78
2018-01-15T09:33:26.543Z,1005.76
2018-01-15T09:34:26.565Z,1005.79
2018-01-15T09:35:26.575Z,1005.67
2018-01-15T09:36:26.585Z,1005.66
2018-01-15T09:37:26.585Z,1005.64
2018-01-15T09:38:26.593Z,1005.67
2018-01-15T09:39:26.602Z,1005.61
2018-01-15T09:40:26.624Z,1005.56
2018-01-15T09:41:26.622Z,1005.6
2018-01-15T09:42:26.642Z,1005.52
2018-01-15T09:43:26.652Z,1005.52
2018-01-15T09:44:26.663Z,1005.49
2018-01-15T09:45:26.673Z,1005.43
2018-01-15T09:46:26.671Z,1005.45
2018-01-15T09:47:26.691Z,1005.39
2018-01-15T09:48:26.690Z,1005.37
2018-01-15T09:49:26.700Z,1005.37
2018-01-15T09:50:26.722Z,1005.29
2018-01-15T09:51:26.736Z,1005.33
2018-01-15T09:52:26.731Z,1005.31
2018-01-15T09:53:26.750Z,1005.37
2018-01-15T09:54:26.760Z,1005.24
2018-01-15T09:55:26.761Z,1005.25
2018-01-15T09:56:26.770Z,1005.17
2018-01-15T09:57:26.781Z,1005.15
2018-01-15T09:58:26.801Z,1005.16
2018-01-15T09:59:26.809Z,1005.19
2018-01-15T10:00:26.810Z,1005.15
2018-01-15T10:01:26.835Z,1005.13
2018-01-15T10:02:26.838Z,1005.13
2018-01-15T10:03:26.838Z,1005.05
2018-01-15T10:04:26.848Z,1005.05
2018-01-15T10:05:26.859Z,1005.05
2018-01-15T10:06:26.869Z,1005.11
2018-01-15T10:07:26.890Z,1005.04
2018-01-15T10:08:26.901Z,1005.05
2018-01-15T10:09:26.898Z,1005.02
2018-01-15T10:10:26.912Z,1004.95
2018-01-15T10:11:26.929Z,1004.97
2018-01-15T10:12:26.941Z,1004.87
2018-01-15T10:13:26.949Z,1004.86
2018-01-15T10:14:26.959Z,1004.77
2018-01-15T10:15:26.958Z,1004.82
2018-01-15T10:16:26.971Z,1004.76
2018-01-15T10:17:26.989Z,1004.77
2018-01-15T10:18:26.989Z,1004.75
2018-01-15T10:19:27.019Z,1004.69
2018-01-15T10:20:27.009Z,1004.65
2018-01-15T10:21:27.021Z,1004.65
2018-01-15T10:22:27.040Z,1004.6
2018-01-15T10:23:27.040Z,1004.63
2018-01-15T10:24:27.065Z,1004.62
2018-01-15T10:25:27.070Z,1004.59
2018-01-15T10:26:27.071Z,1004.58
2018-01-15T10:27:27.080Z,1004.54
2018-01-15T10:28:27.092Z,1004.5
2018-01-15T10:29:27.099Z,1004.47
2018-01-15T10:30:27.121Z,1004.46
2018-01-15T10:31:27.130Z,1004.43
2018-01-15T10:32:27.143Z,1004.42
2018-01-15T10:33:27.150Z,1004.41
2018-01-15T10:34:27.161Z,1004.39
2018-01-15T10:35:27.161Z,1004.32
2018-01-15T10:36:27.578Z,1004.4
2018-01-15T10:37:27.192Z,1004.27
2018-01-15T10:38:27.191Z,1004.3
2018-01-15T10:39:27.212Z,1004.3
2018-01-15T10:40:27.212Z,1004.25
2018-01-15T10:41:27.233Z,1004.21
2018-01-15T10:42:27.232Z,1004.23
2018-01-15T10:43:27.242Z,1004.22
2018-01-15T10:44:27.253Z,1004.16
2018-01-15T10:45:27.264Z,1004.15
2018-01-15T10:46:27.273Z,1004.13
2018-01-15T10:47:27.296Z,1004.17
2018-01-15T10:48:27.295Z,1004.07
2018-01-15T10:49:27.305Z,1004.12
2018-01-15T10:50:27.325Z,1004.02
2018-01-15T10:51:27.328Z,1003.99
2018-01-15T10:52:27.397Z,1003.95
2018-01-15T10:53:27.346Z,1003.98
2018-01-15T10:54:27.357Z,1003.96
2018-01-15T10:55:27.389Z,1003.86
2018-01-15T10:56:27.390Z,1003.88
2018-01-15T10:57:27.389Z,1003.83
2018-01-15T10:58:27.409Z,1003.79
2018-01-15T10:59:27.410Z,1003.87
2018-01-15T11:00:27.420Z,1003.88
2018-01-15T11:01:27.430Z,1003.89
2018-01-15T11:02:27.502Z,1003.8
2018-01-15T11:03:27.462Z,1003.77
2018-01-15T11:04:27.472Z,1003.76
2018-01-15T11:05:27.474Z,1003.75
2018-01-15T11:06:27.485Z,1003.65
2018-01-15T11:07:27.504Z,1003.64
2018-01-15T11:08:27.515Z,1003.64
2018-01-15T11:09:27.515Z,1003.55
2018-01-15T11:10:27.526Z,1003.58
2018-01-15T11:11:27.548Z,1003.55
2018-01-15T11:12:27.699Z,1003.47
2018-01-15T11:13:27.569Z,1003.49
2018-01-15T11:14:27.581Z,1003.48
2018-01-15T11:15:27.578Z,1003.38
2018-01-15T11:16:27.590Z,1003.38
2018-01-15T11:17:27.610Z,1003.42
2018-01-15T11:18:27.622Z,1003.31
2018-01-15T11:19:27.631Z,1003.31
2018-01-15T11:20:27.638Z,1003.25
2018-01-15T11:21:27.654Z,1003.31
2018-01-15T11:22:27.665Z,1003.33
2018-01-15T11:23:27.676Z,1003.35
2018-01-15T11:24:27.675Z,1003.18
2018-01-15T11:25:27.740Z,1003.16
2018-01-15T11:26:27.719Z,1003.15
2018-01-15T11:27:27.758Z,1003.15
2018-01-15T11:28:27.731Z,1003.12
2018-01-15T11:29:27.730Z,1003.11
2018-01-15T11:30:27.751Z,1003.1
2018-01-15T11:31:27.750Z,1003.06
2018-01-15T11:32:27.923Z,1003.09
2018-01-15T11:33:27.789Z,1003.12
2018-01-15T11:34:27.782Z,1003.04
2018-01-15T11:35:27.796Z,1003.13
2018-01-15T11:36:27.829Z,1003.08
2018-01-15T11:37:27.976Z,1003.07
2018-01-15T11:38:27.827Z,1003
2018-01-15T11:39:27.850Z,1002.98
2018-01-15T11:40:27.850Z,1002.96
2018-01-15T11:41:27.870Z,1002.95
2018-01-15T11:42:27.871Z,1002.97
2018-01-15T11:43:27.883Z,1002.83
2018-01-15T11:44:27.903Z,1002.75
2018-01-15T11:45:27.915Z,1002.71
2018-01-15T11:46:27.925Z,1002.63
2018-01-15T11:47:28.077Z,1002.65
2018-01-15T11:48:27.937Z,1002.59
2018-01-15T11:49:27.959Z,1002.63
2018-01-15T11:50:27.962Z,1002.46
2018-01-15T11:51:27.972Z,1002.45
2018-01-15T11:52:27.995Z,1002.45
2018-01-15T11:53:27.992Z,1002.39
2018-01-15T11:54:28.004Z,1002.38
2018-01-15T11:55:28.015Z,1002.26
2018-01-15T11:56:28.036Z,1002.28
2018-01-15T11:57:28.037Z,1002.23
2018-01-15T11:58:28.053Z,1002.23
2018-01-15T11:59:28.072Z,1002.25
2018-01-15T12:00:28.070Z,1002.29
2018-01-15T12:01:28.080Z,1002.31
2018-01-15T12:02:28.093Z,1002.17
2018-01-15T12:03:28.114Z,1002.23
2018-01-15T12:04:28.115Z,1002.18
2018-01-15T12:05:28.137Z,1002.16
2018-01-15T12:06:28.148Z,1002.15
2018-01-15T12:07:28.159Z,1002.07
2018-01-15T12:08:28.160Z,1002.03